createdAt,value
2023-05-08T00:00:14.665Z,4.60
2023-05-08T00:02:42.698Z,4.85
2023-05-08T00:05:09.648Z,5.53
2023-05-08T00:07:36.926Z,5.70
2023-05-08T00:10:04.265Z,6.00
2023-05-08T00:12:31.141Z,4.70
2023-05-08T00:14:58.136Z,4.70
2023-05-08T00:17:26.481Z,4.90
2023-05-08T00:19:53.375Z,6.15
2023-05-08T00:22:20.376Z,5.25
2023-05-08T00:24:47.397Z,5.78
2023-05-08T00:27:14.310Z,5.20
2023-05-08T00:29:41.186Z,4.85
2023-05-08T00:32:08.295Z,5.47
2023-05-08T00:34:36.602Z,5.10
2023-05-08T00:37:03.918Z,5.95
2023-05-08T00:39:31.013Z,5.25
2023-05-08T00:41:58.139Z,6.20
2023-05-08T00:44:25.089Z,5.55
2023-05-08T00:46:52.212Z,4.63
2023-05-08T00:49:19.299Z,4.72
2023-05-08T00:51:49.275Z,5.18
2023-05-08T00:54:16.810Z,5.38
2023-05-08T00:56:44.113Z,5.15
2023-05-08T00:59:14.204Z,5.30
2023-05-08T01:01:41.576Z,4.93
2023-05-08T01:04:08.589Z,5.47
2023-05-08T01:06:36.926Z,5.32
2023-05-08T01:09:05.871Z,5.07
2023-05-08T01:11:38.273Z,5.50
2023-05-08T01:14:11.185Z,5.45
2023-05-08T01:16:41.671Z,6.20
2023-05-08T01:19:24.857Z,4.57
2023-05-08T01:21:56.686Z,5.00
2023-05-08T01:24:47.754Z,4.50
2023-05-08T01:27:36.645Z,5.30
2023-05-08T01:30:27.085Z,5.30
2023-05-08T01:32:57.925Z,4.47
2023-05-08T01:35:30.529Z,4.82
2023-05-08T01:38:00.725Z,5.22
2023-05-08T01:40:34.339Z,4.45
2023-05-08T01:43:11.426Z,5.88
2023-05-08T01:45:40.645Z,5.55
2023-05-08T01:48:12.330Z,5.68
2023-05-08T01:50:44.117Z,5.20
2023-05-08T01:53:16.143Z,5.30
2023-05-08T01:55:44.114Z,5.47
2023-05-08T01:58:11.861Z,4.75
2023-05-08T02:00:41.074Z,5.32
2023-05-08T02:05:37.754Z,4.70
2023-05-08T02:08:05.381Z,6.05
2023-05-08T02:10:32.237Z,5.40
2023-05-08T02:13:00.232Z,5.40
2023-05-08T02:15:27.999Z,5.47
2023-05-08T02:17:55.603Z,5.63
2023-05-08T02:20:23.946Z,6.50
2023-05-08T02:22:51.888Z,5.82
2023-05-08T02:25:19.414Z,5.70
2023-05-08T02:27:48.181Z,5.65
2023-05-08T02:30:16.625Z,5.05
2023-05-08T02:32:44.642Z,5.50
2023-05-08T02:35:14.269Z,4.97
2023-05-08T02:37:43.509Z,4.85
2023-05-08T02:40:12.426Z,5.00
2023-05-08T02:42:39.613Z,6.35
2023-05-08T02:45:07.874Z,5.50
2023-05-08T02:47:41.889Z,5.97
2023-05-08T02:50:14.035Z,6.35
2023-05-08T02:52:45.210Z,5.32
2023-05-08T02:55:17.170Z,5.72
2023-05-08T02:57:47.450Z,6.43
2023-05-08T03:00:17.095Z,6.57
2023-05-08T03:02:45.942Z,5.97
2023-05-08T03:05:17.283Z,7.22
2023-05-08T03:07:47.869Z,7.07
2023-05-08T03:10:16.713Z,7.88
2023-05-08T03:12:46.357Z,8.63
2023-05-08T03:15:17.664Z,7.00
2023-05-08T03:17:46.441Z,6.97
2023-05-08T03:20:17.245Z,6.93
2023-05-08T03:22:46.711Z,6.68
2023-05-08T03:25:15.407Z,6.18
2023-05-08T03:30:10.086Z,5.38
2023-05-08T03:32:39.556Z,6.25
2023-05-08T03:35:06.944Z,6.47
2023-05-08T03:37:34.520Z,5.60
2023-05-08T03:40:03.821Z,5.55
2023-05-08T03:42:31.394Z,5.40
2023-05-08T03:44:58.976Z,5.75
2023-05-08T03:47:29.051Z,4.97
2023-05-08T03:49:57.024Z,5.32
2023-05-08T03:54:52.805Z,4.80
2023-05-08T03:57:21.543Z,4.43
2023-05-08T03:59:53.178Z,5.28
2023-05-08T04:02:26.875Z,5.60
2023-05-08T04:05:01.514Z,4.90
2023-05-08T04:07:32.043Z,5.38
2023-05-08T04:10:02.988Z,5.43
2023-05-08T04:12:38.720Z,5.00
2023-05-08T04:15:09.279Z,5.47
2023-05-08T04:17:40.549Z,5.57
2023-05-08T04:20:12.183Z,5.20
2023-05-08T04:22:39.944Z,5.55
2023-05-08T04:25:08.135Z,4.78
2023-05-08T04:27:36.838Z,4.78
2023-05-08T04:30:04.473Z,4.18
2023-05-08T04:32:35.133Z,4.82
2023-05-08T04:35:03.525Z,5.05
2023-05-08T04:37:33.789Z,5.05
2023-05-08T04:40:04.905Z,5.03
2023-05-08T04:42:36.515Z,4.50
2023-05-08T04:45:06.271Z,5.28
2023-05-08T04:47:33.164Z,4.43
2023-05-08T04:50:02.834Z,4.25
2023-05-08T04:52:31.854Z,3.88
2023-05-08T04:54:59.119Z,5.15
2023-05-08T04:57:26.105Z,4.75
2023-05-08T04:59:53.098Z,4.25
2023-05-08T05:02:21.625Z,5.20
2023-05-08T05:04:49.184Z,5.07
2023-05-08T05:07:16.225Z,4.97
2023-05-08T05:09:43.468Z,4.72
2023-05-08T05:12:10.379Z,4.38
2023-05-08T05:14:37.341Z,5.22
2023-05-08T05:17:04.463Z,5.20
2023-05-08T05:19:32.853Z,5.30
2023-05-08T05:24:27.324Z,5.43
2023-05-08T05:26:54.283Z,5.13
2023-05-08T05:29:21.347Z,4.10
2023-05-08T05:31:48.416Z,5.05
2023-05-08T05:34:15.559Z,5.00
2023-05-08T05:36:44.153Z,4.50
2023-05-08T05:39:11.353Z,4.35
2023-05-08T05:41:39.224Z,4.25
2023-05-08T05:44:06.807Z,4.60
2023-05-08T05:46:33.941Z,4.68
2023-05-08T05:49:03.311Z,4.72
2023-05-08T05:51:31.034Z,4.70
2023-05-08T05:53:59.434Z,4.43
2023-05-08T05:56:26.603Z,5.00
2023-05-08T05:58:53.636Z,4.53
2023-05-08T06:01:20.657Z,4.35
2023-05-08T06:03:47.775Z,5.53
2023-05-08T06:06:14.865Z,5.43
2023-05-08T06:08:41.821Z,5.20
2023-05-08T06:11:10.412Z,4.05
2023-05-08T06:13:39.560Z,4.32
2023-05-08T06:16:08.179Z,5.47
2023-05-08T06:18:35.150Z,4.90
2023-05-08T06:21:02.089Z,4.43
2023-05-08T06:23:29.039Z,5.80
2023-05-08T06:25:56.039Z,5.07
2023-05-08T06:28:26.139Z,5.22
2023-05-08T06:30:53.217Z,4.75
2023-05-08T06:33:20.306Z,3.95
2023-05-08T06:35:47.852Z,4.18
2023-05-08T06:38:14.929Z,4.20
2023-05-08T06:40:43.339Z,4.10
2023-05-08T06:43:10.521Z,4.65
2023-05-08T06:45:38.848Z,4.75
2023-05-08T06:48:06.395Z,4.03
2023-05-08T06:50:33.387Z,4.47
2023-05-08T06:53:00.323Z,5.07
2023-05-08T06:55:27.286Z,3.88
2023-05-08T06:57:54.233Z,4.07
2023-05-08T07:00:21.717Z,3.92
2023-05-08T07:02:50.057Z,4.30
2023-05-08T07:05:18.274Z,4.50
2023-05-08T07:07:46.133Z,4.90
2023-05-08T07:10:13.022Z,4.30
2023-05-08T07:12:39.940Z,4.35
2023-05-08T07:15:21.824Z,4.57
2023-05-08T07:17:56.535Z,4.13
2023-05-08T07:20:24.635Z,4.22
2023-05-08T07:22:51.748Z,4.15
2023-05-08T07:25:18.760Z,4.78
2023-05-08T07:27:46.025Z,3.28
2023-05-08T07:30:13.492Z,3.60
2023-05-08T07:32:40.454Z,3.10
2023-05-08T07:35:11.563Z,3.42
2023-05-08T07:37:38.904Z,3.72
2023-05-08T07:40:07.388Z,3.65
2023-05-08T07:42:39.000Z,3.03
2023-05-08T07:45:07.001Z,4.15
2023-05-08T07:47:34.019Z,4.15
2023-05-08T07:50:01.117Z,4.18
2023-05-08T07:52:29.435Z,3.83
2023-05-08T07:54:56.377Z,3.67
2023-05-08T07:57:23.272Z,4.30
2023-05-08T07:59:50.165Z,3.80
2023-05-08T08:02:17.167Z,4.50
2023-05-08T08:04:44.090Z,4.03
2023-05-08T08:07:11.016Z,4.15
2023-05-08T08:09:39.382Z,4.95
2023-05-08T08:12:06.653Z,6.18
2023-05-08T08:14:33.568Z,5.15
2023-05-08T08:17:00.635Z,5.45
2023-05-08T08:19:27.655Z,5.85
2023-05-08T08:21:54.614Z,5.82
2023-05-08T08:24:21.625Z,4.82
2023-05-08T08:26:49.913Z,4.90
2023-05-08T08:29:17.352Z,4.25
2023-05-08T08:31:44.270Z,3.65
2023-05-08T08:34:11.531Z,3.88
2023-05-08T08:36:39.561Z,4.20
2023-05-08T08:39:06.609Z,4.07
2023-05-08T08:41:33.764Z,4.00
2023-05-08T08:44:02.186Z,3.42
2023-05-08T08:46:29.831Z,3.33
2023-05-08T08:48:56.921Z,3.25
2023-05-08T08:51:31.372Z,3.00
2023-05-08T08:54:04.380Z,3.15
2023-05-08T08:56:32.144Z,3.08
2023-05-08T08:59:01.935Z,2.90
2023-05-08T09:01:30.388Z,3.20
2023-05-08T09:03:58.844Z,3.40
2023-05-08T09:06:27.875Z,3.78
2023-05-08T09:08:56.505Z,3.17
2023-05-08T09:11:23.593Z,3.47
2023-05-08T09:13:50.875Z,4.38
2023-05-08T09:16:19.212Z,4.07
2023-05-08T09:18:47.290Z,3.78
2023-05-08T09:21:14.337Z,3.83
2023-05-08T09:23:55.444Z,3.45
2023-05-08T09:26:32.442Z,4.68
2023-05-08T09:29:10.088Z,4.20
2023-05-08T09:31:42.162Z,3.75
2023-05-08T09:34:10.101Z,3.78
2023-05-08T09:36:37.483Z,3.95
2023-05-08T09:39:04.630Z,4.25
2023-05-08T09:41:31.603Z,5.68
2023-05-08T09:44:02.869Z,3.88
2023-05-08T09:46:31.005Z,3.65
2023-05-08T09:49:00.053Z,3.80
2023-05-08T09:51:28.593Z,3.58
2023-05-08T09:53:57.230Z,4.65
2023-05-08T09:56:31.927Z,4.50
2023-05-08T09:58:58.889Z,4.28
2023-05-08T10:01:30.329Z,3.75
2023-05-08T10:03:57.410Z,4.03
2023-05-08T10:06:26.293Z,3.78
2023-05-08T10:09:07.246Z,4.40
2023-05-08T10:11:34.232Z,4.35
2023-05-08T10:14:01.331Z,3.70
2023-05-08T10:16:29.633Z,4.63
2023-05-08T10:19:02.167Z,4.40
2023-05-08T10:21:31.861Z,6.18
2023-05-08T10:23:59.445Z,4.55
2023-05-08T10:26:31.262Z,4.35
2023-05-08T10:28:59.394Z,3.70
2023-05-08T10:31:28.574Z,5.35
2023-05-08T10:33:56.718Z,4.55
2023-05-08T10:36:23.804Z,3.75
2023-05-08T10:38:52.249Z,5.20
2023-05-08T10:41:19.738Z,5.03
2023-05-08T10:43:47.131Z,3.85
2023-05-08T10:46:18.684Z,4.35
2023-05-08T10:48:58.779Z,3.60
2023-05-08T10:51:33.480Z,4.55
2023-05-08T10:54:06.850Z,4.20
2023-05-08T10:56:33.761Z,3.33
2023-05-08T10:59:01.068Z,3.83
2023-05-08T11:01:28.362Z,3.95
2023-05-08T11:03:56.931Z,4.00
2023-05-08T11:06:45.592Z,3.83
2023-05-08T11:09:21.200Z,4.00
2023-05-08T11:11:55.362Z,4.85
2023-05-08T11:14:23.330Z,4.45
2023-05-08T11:17:06.545Z,4.00
2023-05-08T11:19:38.628Z,4.47
2023-05-08T11:22:15.861Z,4.20
2023-05-08T11:24:51.149Z,4.13
2023-05-08T11:27:18.500Z,4.07
2023-05-08T11:29:45.413Z,4.40
2023-05-08T11:32:12.310Z,4.25
2023-05-08T11:34:45.972Z,4.13
2023-05-08T11:37:17.431Z,4.38
2023-05-08T11:39:44.309Z,4.43
2023-05-08T11:42:37.625Z,3.85
2023-05-08T11:45:06.143Z,4.13
2023-05-08T11:47:37.949Z,3.92
2023-05-08T11:50:06.207Z,4.35
2023-05-08T11:52:33.695Z,4.53
2023-05-08T11:57:30.757Z,3.97
2023-05-08T11:59:59.216Z,4.65
2023-05-08T12:02:37.218Z,4.13
2023-05-08T12:05:04.828Z,4.57
2023-05-08T12:07:31.947Z,4.45
2023-05-08T12:10:01.347Z,3.95
2023-05-08T12:12:37.645Z,3.63
2023-05-08T12:15:10.797Z,4.32
2023-05-08T12:17:38.322Z,4.75
2023-05-08T12:20:13.348Z,3.88
2023-05-08T12:22:41.359Z,4.25
2023-05-08T12:25:10.595Z,4.07
2023-05-08T12:27:38.321Z,3.63
2023-05-08T12:30:11.674Z,3.60
2023-05-08T12:32:40.061Z,3.70
2023-05-08T12:35:08.345Z,2.88
2023-05-08T12:37:35.486Z,3.90
2023-05-08T12:40:02.793Z,3.90
2023-05-08T12:42:42.843Z,3.55
2023-05-08T12:45:17.146Z,3.15
2023-05-08T12:47:46.248Z,2.80
2023-05-08T12:50:15.593Z,3.53
2023-05-08T12:52:42.835Z,3.92
2023-05-08T12:55:23.797Z,2.65
2023-05-08T12:57:51.904Z,3.25
2023-05-08T13:00:20.317Z,4.07
2023-05-08T13:02:53.993Z,3.22
2023-05-08T13:05:21.970Z,3.10
2023-05-08T13:07:49.425Z,3.60
2023-05-08T13:10:16.464Z,3.10
2023-05-08T13:12:43.421Z,2.92
2023-05-08T13:15:10.796Z,3.75
2023-05-08T13:17:39.279Z,3.80
2023-05-08T13:20:07.596Z,3.55
2023-05-08T13:22:34.580Z,3.30
2023-05-08T13:25:01.873Z,3.53
2023-05-08T13:27:28.910Z,3.30
2023-05-08T13:29:55.794Z,2.83
2023-05-08T13:32:22.973Z,3.42
2023-05-08T13:34:53.109Z,3.00
2023-05-08T13:37:23.309Z,4.25
2023-05-08T13:39:50.195Z,3.30
2023-05-08T13:42:17.168Z,3.53
2023-05-08T13:44:44.043Z,3.67
2023-05-08T13:47:11.098Z,3.67
2023-05-08T13:49:38.023Z,3.22
2023-05-08T13:52:06.462Z,3.47
2023-05-08T13:54:33.349Z,3.53
2023-05-08T13:57:01.201Z,3.17
2023-05-08T13:59:28.187Z,3.28
2023-05-08T14:01:55.191Z,3.30
2023-05-08T14:04:22.069Z,3.60
2023-05-08T14:06:49.993Z,2.88
2023-05-08T14:11:45.061Z,3.10
2023-05-08T14:14:11.989Z,3.95
2023-05-08T14:16:39.025Z,3.83
2023-05-08T14:19:06.257Z,3.80
2023-05-08T14:21:34.636Z,3.47
2023-05-08T14:24:01.534Z,3.70
2023-05-08T14:26:29.850Z,3.58
2023-05-08T14:28:57.182Z,4.80
2023-05-08T14:31:24.246Z,3.95
2023-05-08T14:33:51.269Z,3.50
2023-05-08T14:36:18.174Z,3.67
2023-05-08T14:38:45.162Z,3.72
2023-05-08T14:41:12.052Z,3.95
2023-05-08T14:43:40.389Z,4.10
2023-05-08T14:46:07.372Z,4.45
2023-05-08T14:48:34.372Z,4.97
2023-05-08T14:51:01.384Z,4.10
2023-05-08T14:53:28.583Z,3.92
2023-05-08T14:55:55.814Z,3.95
2023-05-08T14:58:23.058Z,4.35
2023-05-08T15:00:51.555Z,3.38
2023-05-08T15:03:18.800Z,3.95
2023-05-08T15:05:47.281Z,3.53
2023-05-08T15:08:14.306Z,3.20
2023-05-08T15:10:41.316Z,3.42
2023-05-08T15:13:08.292Z,3.88
2023-05-08T15:15:35.231Z,3.63
2023-05-08T15:18:03.804Z,4.65
2023-05-08T15:20:30.766Z,3.80
2023-05-08T15:22:57.729Z,3.67
2023-05-08T15:25:26.090Z,3.40
2023-05-08T15:27:53.071Z,2.45
2023-05-08T15:30:20.372Z,3.08
2023-05-08T15:32:47.678Z,2.60
2023-05-08T15:35:16.530Z,3.00
2023-05-08T15:37:43.489Z,2.28
2023-05-08T15:40:11.432Z,2.83
2023-05-08T15:42:38.363Z,2.33
2023-05-08T15:45:06.100Z,2.70
2023-05-08T15:47:33.412Z,2.30
2023-05-08T15:50:00.484Z,2.50
2023-05-08T15:52:28.787Z,2.88
2023-05-08T15:54:55.719Z,2.20
2023-05-08T15:57:22.657Z,2.53
2023-05-08T15:59:49.602Z,2.28
2023-05-08T16:02:16.513Z,3.10
2023-05-08T16:04:43.459Z,2.78
2023-05-08T16:07:10.349Z,2.10
2023-05-08T16:09:38.811Z,2.80
2023-05-08T16:12:06.344Z,2.58
2023-05-08T16:14:33.234Z,2.65
2023-05-08T16:17:00.174Z,2.72
2023-05-08T16:19:27.151Z,2.65
2023-05-08T16:21:54.148Z,2.60
2023-05-08T16:24:21.157Z,2.63
2023-05-08T16:26:49.536Z,2.85
2023-05-08T16:29:16.655Z,2.47
2023-05-08T16:31:43.717Z,2.40
2023-05-08T16:34:10.637Z,3.05
2023-05-08T16:36:37.623Z,3.15
2023-05-08T16:39:04.550Z,2.63
2023-05-08T16:41:31.517Z,2.80
2023-05-08T16:43:59.882Z,2.92
2023-05-08T16:46:29.861Z,3.10
2023-05-08T16:48:57.638Z,2.28
2023-05-08T16:51:24.636Z,3.22
2023-05-08T16:53:51.648Z,3.08
2023-05-08T16:56:18.573Z,2.50
2023-05-08T16:58:45.511Z,2.67
2023-05-08T17:01:14.284Z,2.97
2023-05-08T17:03:41.342Z,2.60
2023-05-08T17:06:08.801Z,2.33
2023-05-08T17:08:35.738Z,3.13
2023-05-08T17:11:02.697Z,3.33
2023-05-08T17:13:29.766Z,2.63
2023-05-08T17:15:57.537Z,2.90
2023-05-08T17:18:26.020Z,2.70
2023-05-08T17:20:52.923Z,3.50
2023-05-08T17:23:19.854Z,2.47
2023-05-08T17:25:46.762Z,2.15
2023-05-08T17:28:13.780Z,3.53
2023-05-08T17:30:40.830Z,2.83
2023-05-08T17:33:07.773Z,3.78
2023-05-08T17:35:36.283Z,3.38
2023-05-08T17:38:03.297Z,4.07
2023-05-08T17:40:30.445Z,3.95
2023-05-08T17:42:59.209Z,3.72
2023-05-08T17:45:26.383Z,2.83
2023-05-08T17:47:53.364Z,3.10
2023-05-08T17:50:20.508Z,3.92
2023-05-08T17:52:48.950Z,4.05
2023-05-08T17:55:15.867Z,4.00
2023-05-08T17:57:42.809Z,3.78
2023-05-08T18:00:11.264Z,3.33
2023-05-08T18:02:39.584Z,4.00
2023-05-08T18:05:07.439Z,3.50
2023-05-08T18:07:34.337Z,3.45
2023-05-08T18:10:02.689Z,3.95
2023-05-08T18:12:29.580Z,4.07
2023-05-08T18:14:56.472Z,4.68
2023-05-08T18:17:23.427Z,4.00
2023-05-08T18:19:50.400Z,4.65
2023-05-08T18:22:17.295Z,4.65
2023-05-08T18:24:45.673Z,4.78
2023-05-08T18:27:14.014Z,4.50
2023-05-08T18:29:40.852Z,5.13
2023-05-08T18:32:07.844Z,5.57
2023-05-08T18:34:34.754Z,4.72
2023-05-08T18:37:01.742Z,4.03
2023-05-08T18:39:28.744Z,4.75
2023-05-08T18:41:55.782Z,4.78
2023-05-08T18:44:24.136Z,4.80
2023-05-08T18:46:51.104Z,4.57
2023-05-08T18:49:18.068Z,5.57
2023-05-08T18:51:45.009Z,4.70
2023-05-08T18:54:11.927Z,5.28
2023-05-08T18:56:38.902Z,5.43
2023-05-08T18:59:05.924Z,5.07
2023-05-08T19:01:34.272Z,5.55
2023-05-08T19:04:01.954Z,5.18
2023-05-08T19:06:29.000Z,5.05
2023-05-08T19:08:55.982Z,4.55
2023-05-08T19:11:22.932Z,4.65
2023-05-08T19:13:51.825Z,4.85
2023-05-08T19:16:18.863Z,6.30
2023-05-08T19:18:47.215Z,4.30
2023-05-08T19:21:14.297Z,5.07
2023-05-08T19:23:41.306Z,5.65
2023-05-08T19:26:08.706Z,5.82
2023-05-08T19:28:35.696Z,4.95
2023-05-08T19:31:02.708Z,5.05
2023-05-08T19:33:29.770Z,4.70
2023-05-08T19:35:58.026Z,6.25
2023-05-08T19:38:25.011Z,5.75
2023-05-08T19:40:56.533Z,5.32
2023-05-08T19:43:25.048Z,5.22
2023-05-08T19:45:52.281Z,5.13
2023-05-08T19:48:20.161Z,4.85
2023-05-08T19:50:47.246Z,4.65
2023-05-08T19:53:15.662Z,5.15
2023-05-08T19:55:42.585Z,5.28
2023-05-08T19:58:09.502Z,5.78
2023-05-08T20:00:36.483Z,5.00
2023-05-08T20:03:03.480Z,5.78
2023-05-08T20:05:30.742Z,5.80
2023-05-08T20:07:57.694Z,6.18
2023-05-08T20:10:26.294Z,4.57
2023-05-08T20:12:53.316Z,4.85
2023-05-08T20:15:20.575Z,6.47
2023-05-08T20:17:47.558Z,5.25
2023-05-08T20:20:14.835Z,5.20
2023-05-08T20:22:41.954Z,5.78
2023-05-08T20:25:09.091Z,6.38
2023-05-08T20:27:37.542Z,4.95
2023-05-08T20:30:05.422Z,5.85
2023-05-08T20:32:32.323Z,5.63
2023-05-08T20:34:59.273Z,6.82
2023-05-08T20:37:26.201Z,5.93
2023-05-08T20:39:53.231Z,5.60
2023-05-08T20:42:20.225Z,5.70
2023-05-08T20:44:48.454Z,6.25
2023-05-08T20:49:42.110Z,5.90
2023-05-08T20:52:08.978Z,6.65
2023-05-08T20:54:35.943Z,6.32
2023-05-08T20:57:02.937Z,6.13
2023-05-08T20:59:29.810Z,6.90
2023-05-08T21:01:58.093Z,6.35
2023-05-08T21:06:52.399Z,6.60
2023-05-08T21:09:19.402Z,6.65
2023-05-08T21:11:46.286Z,6.60
2023-05-08T21:14:13.241Z,6.03
2023-05-08T21:16:40.278Z,6.18
2023-05-08T21:19:11.293Z,4.53
2023-05-08T21:21:38.284Z,4.32
2023-05-08T21:24:05.839Z,4.30
2023-05-08T21:26:32.785Z,4.32
2023-05-08T21:29:00.535Z,4.75
2023-05-08T21:31:28.938Z,5.20
2023-05-08T21:33:56.094Z,5.60
2023-05-08T21:36:24.441Z,6.05
2023-05-08T21:38:52.548Z,4.90
2023-05-08T21:41:19.472Z,5.30
2023-05-08T21:43:46.408Z,5.63
2023-05-08T21:46:13.355Z,5.18
2023-05-08T21:48:40.436Z,3.95
2023-05-08T21:51:07.311Z,4.95
2023-05-08T21:53:35.702Z,4.85
2023-05-08T21:56:02.601Z,5.10
2023-05-08T21:58:29.527Z,5.00
2023-05-08T22:00:58.413Z,3.85
2023-05-08T22:03:25.858Z,4.40
2023-05-08T22:05:52.776Z,4.65
2023-05-08T22:08:19.708Z,3.58
2023-05-08T22:10:47.997Z,4.80
2023-05-08T22:15:42.858Z,3.55
2023-05-08T22:18:09.744Z,3.75
2023-05-08T22:20:36.713Z,4.55
2023-05-08T22:23:03.649Z,4.82
2023-05-08T22:25:30.836Z,3.95
2023-05-08T22:27:59.134Z,4.93
2023-05-08T22:32:54.546Z,3.72
2023-05-08T22:35:22.511Z,3.60
2023-05-08T22:37:49.325Z,4.45
2023-05-08T22:40:16.437Z,3.53
2023-05-08T22:42:43.545Z,4.03
2023-05-08T22:45:12.497Z,3.40
2023-05-08T22:47:40.289Z,4.05
2023-05-08T22:50:09.277Z,3.20
2023-05-08T22:52:36.660Z,3.70
2023-05-08T22:55:03.982Z,3.85
2023-05-08T22:57:30.923Z,3.20
2023-05-08T22:59:57.909Z,3.50
2023-05-08T23:02:31.388Z,2.95
2023-05-08T23:04:58.303Z,3.42
2023-05-08T23:07:25.231Z,3.20
2023-05-08T23:09:52.142Z,2.75
2023-05-08T23:12:19.184Z,3.55
2023-05-08T23:14:46.135Z,2.47
2023-05-08T23:17:14.120Z,2.72
2023-05-08T23:19:42.968Z,2.20
2023-05-08T23:22:10.311Z,3.05
2023-05-08T23:24:37.462Z,2.58
2023-05-08T23:27:04.414Z,3.25
2023-05-08T23:29:31.345Z,2.90
2023-05-08T23:31:58.251Z,3.08
2023-05-08T23:34:25.204Z,3.08
2023-05-08T23:36:53.556Z,2.65
2023-05-08T23:39:20.529Z,2.70
2023-05-08T23:41:47.662Z,2.00
2023-05-08T23:44:14.876Z,2.53
2023-05-08T23:46:41.965Z,2.00
2023-05-08T23:49:09.043Z,2.50
2023-05-08T23:51:35.987Z,2.70
2023-05-08T23:54:05.019Z,2.17
2023-05-08T23:56:31.901Z,2.95
2023-05-08T23:58:58.749Z,2.78
